Time;durP1;ratioP1;P1;durP2;ratioP2;P2;SDS_P1;SDS_P2;PMS_P1;PMS_P2;Temp;Humidity;BMP_temperature;BMP_pressure;BME280_temperature;BME280_humidity;BME280_pressure;Samples;Min_cycle;Max_cycle;Signal;HPM_P1;HPM_P2
2021/05/15 00:02:17;;;;;;;6.55;1.38;;;9.80;99.90;;;;;;5074374;28;20237;-67
2021/05/15 00:04:43;;;;;;;2.65;1.50;;;9.90;99.90;;;;;;5074553;28;20032;-67
2021/05/15 00:07:09;;;;;;;2.25;1.17;;;9.90;99.90;;;;;;5074309;28;20070;-67
2021/05/15 00:09:36;;;;;;;4.35;1.38;;;9.90;99.90;;;;;;5074330;28;20033;-67
2021/05/15 00:12:02;;;;;;;2.50;1.20;;;9.90;99.90;;;;;;5074194;28;20024;-67
2021/05/15 00:14:27;;;;;;;3.53;1.35;;;10.00;99.90;;;;;;5074101;28;20059;-67
2021/05/15 00:16:53;;;;;;;3.35;2.00;;;10.00;99.90;;;;;;5074361;28;20036;-67
2021/05/15 00:19:19;;;;;;;3.42;1.38;;;10.00;99.90;;;;;;5073928;28;20052;-66
2021/05/15 00:21:45;;;;;;;2.15;1.20;;;10.00;99.90;;;;;;5074343;28;20478;-67
2021/05/15 00:24:11;;;;;;;2.28;1.30;;;9.90;99.90;;;;;;5074121;28;20037;-67
2021/05/15 00:26:37;;;;;;;2.45;1.38;;;9.80;99.90;;;;;;5074003;28;20063;-67
2021/05/15 00:29:04;;;;;;;3.67;1.48;;;9.70;99.90;;;;;;5073898;28;20396;-67
2021/05/15 00:31:30;;;;;;;3.08;1.48;;;9.60;99.90;;;;;;5072763;28;20397;-67
2021/05/15 00:33:55;;;;;;;2.45;1.55;;;9.50;99.90;;;;;;5072419;28;20039;-67
2021/05/15 00:36:21;;;;;;;2.55;1.80;;;9.40;99.90;;;;;;5074017;28;20024;-67
2021/05/15 00:38:47;;;;;;;4.22;1.50;;;9.30;99.90;;;;;;5073823;28;20033;-67
2021/05/15 00:41:12;;;;;;;5.15;1.60;;;9.30;99.90;;;;;;5073914;28;20357;-67
2021/05/15 00:43:45;;;;;;;3.75;1.75;;;9.30;99.90;;;;;;5073639;28;20056;-67
2021/05/15 00:46:13;;;;;;;5.90;1.77;;;9.30;99.90;;;;;;5072232;28;20504;-67
2021/05/15 00:48:38;;;;;;;3.00;1.73;;;9.40;99.90;;;;;;5073724;28;20123;-67
2021/05/15 00:51:04;;;;;;;2.95;1.83;;;9.50;99.90;;;;;;5073640;28;20425;-68
2021/05/15 00:53:30;;;;;;;3.90;2.30;;;9.40;99.90;;;;;;5073635;28;20028;-67
2021/05/15 00:55:56;;;;;;;3.47;2.35;;;9.30;99.90;;;;;;5073724;28;20028;-67
2021/05/15 00:58:22;;;;;;;5.18;2.00;;;9.30;99.90;;;;;;5073431;28;20031;-67
2021/05/15 01:00:48;;;;;;;4.70;1.90;;;9.20;99.90;;;;;;5072384;28;20031;-67
2021/05/15 01:03:14;;;;;;;3.63;1.95;;;9.20;99.90;;;;;;5073142;28;20112;-67
2021/05/15 01:05:39;;;;;;;3.75;2.13;;;9.20;99.90;;;;;;5073392;28;20024;-67
2021/05/15 01:08:05;;;;;;;3.28;1.90;;;9.20;99.90;;;;;;5073054;28;20047;-67
2021/05/15 01:10:31;;;;;;;4.10;2.30;;;9.10;99.90;;;;;;5073476;28;20139;-67
2021/05/15 01:12:58;;;;;;;3.90;2.40;;;9.10;99.90;;;;;;5073312;28;20032;-67
2021/05/15 01:15:27;;;;;;;7.97;2.65;;;9.10;99.90;;;;;;5072850;28;20024;-67
2021/05/15 01:17:59;;;;;;;4.20;2.65;;;9.10;99.90;;;;;;5071576;28;20111;-66
2021/05/15 01:20:30;;;;;;;5.45;2.65;;;9.10;99.90;;;;;;5073111;28;20040;-66
2021/05/15 01:22:57;;;;;;;4.30;2.65;;;9.10;99.90;;;;;;5071855;28;20419;-66
2021/05/15 01:25:24;;;;;;;6.32;2.50;;;9.30;99.90;;;;;;5073022;28;20044;-66
2021/05/15 01:27:50;;;;;;;5.45;2.70;;;9.20;99.90;;;;;;5071782;28;20032;-66
2021/05/15 01:30:17;;;;;;;4.95;2.80;;;9.30;99.90;;;;;;5072611;28;20116;-66
2021/05/15 01:32:47;;;;;;;5.25;3.35;;;9.40;99.90;;;;;;5072751;28;20028;-66
2021/05/15 01:35:16;;;;;;;5.10;2.90;;;9.40;99.90;;;;;;5072628;28;20039;-67
2021/05/15 01:37:42;;;;;;;5.20;3.08;;;9.40;99.90;;;;;;5071682;28;20041;-67
2021/05/15 01:40:10;;;;;;;5.50;3.03;;;9.40;99.90;;;;;;5072511;28;20048;-68
2021/05/15 01:42:35;;;;;;;6.88;3.08;;;9.40;99.90;;;;;;5072876;28;20040;-67
2021/05/15 01:45:04;;;;;;;6.38;3.50;;;9.50;99.90;;;;;;5072169;28;20358;-66
2021/05/15 01:47:34;;;;;;;9.50;3.72;;;9.50;99.90;;;;;;5072592;28;20075;-66
2021/05/15 01:50:00;;;;;;;7.72;3.28;;;9.50;99.90;;;;;;5071298;28;20036;-67
2021/05/15 01:52:25;;;;;;;5.30;3.10;;;9.50;99.90;;;;;;5072279;28;20032;-67
2021/05/15 01:54:51;;;;;;;7.38;3.63;;;9.60;99.90;;;;;;5072609;28;20028;-67
2021/05/15 01:57:17;;;;;;;5.47;3.17;;;9.60;99.90;;;;;;5072340;28;20157;-67
2021/05/15 01:59:42;;;;;;;5.85;3.00;;;9.70;99.90;;;;;;5072406;28;20038;-66
2021/05/15 02:02:08;;;;;;;5.28;2.92;;;9.80;99.90;;;;;;5072273;28;20081;-67
2021/05/15 02:04:34;;;;;;;5.03;2.88;;;9.80;99.90;;;;;;5072635;28;20032;-67
2021/05/15 02:07:00;;;;;;;5.68;2.92;;;9.80;99.90;;;;;;5072279;28;20042;-66
2021/05/15 02:09:25;;;;;;;5.72;2.65;;;9.80;99.90;;;;;;5072402;28;20029;-67
2021/05/15 02:11:51;;;;;;;6.63;3.20;;;9.70;99.90;;;;;;5072278;28;20477;-66
2021/05/15 02:14:17;;;;;;;4.10;2.75;;;9.70;99.90;;;;;;5072005;28;20036;-67
2021/05/15 02:16:43;;;;;;;3.90;2.50;;;9.70;99.90;;;;;;5072202;28;20126;-67
2021/05/15 02:19:09;;;;;;;4.03;2.45;;;9.60;99.90;;;;;;5070656;28;20057;-66
2021/05/15 02:21:35;;;;;;;5.65;2.72;;;9.50;99.90;;;;;;5071199;28;20039;-67
2021/05/15 02:24:01;;;;;;;4.95;2.45;;;9.60;99.90;;;;;;5072516;28;20043;-67
2021/05/15 02:26:27;;;;;;;5.07;1.83;;;9.60;99.90;;;;;;5072034;28;20021;-67
2021/05/15 02:28:53;;;;;;;3.55;2.33;;;9.60;99.90;;;;;;5071866;28;20040;-67
2021/05/15 02:31:19;;;;;;;7.50;2.60;;;9.70;99.90;;;;;;5072279;28;20063;-67
2021/05/15 02:33:45;;;;;;;4.45;2.15;;;9.60;99.90;;;;;;5072274;28;20067;-67
2021/05/15 02:36:10;;;;;;;4.38;2.33;;;9.50;99.90;;;;;;5072119;28;20032;-67
2021/05/15 02:38:39;;;;;;;4.03;2.35;;;9.60;99.90;;;;;;5071949;28;20039;-67
2021/05/15 02:41:04;;;;;;;3.40;1.70;;;9.60;99.90;;;;;;5072258;28;20480;-67
2021/05/15 02:43:30;;;;;;;2.97;2.00;;;9.70;99.90;;;;;;5071718;28;20186;-67
2021/05/15 02:45:56;;;;;;;5.03;2.00;;;9.70;99.90;;;;;;5071958;28;20032;-67
2021/05/15 02:48:22;;;;;;;4.35;2.20;;;9.80;99.90;;;;;;5071610;28;20029;-67
2021/05/15 02:50:51;;;;;;;3.28;2.22;;;9.90;99.90;;;;;;5072091;28;20037;-67
2021/05/15 02:53:18;;;;;;;5.15;2.45;;;9.60;99.90;;;;;;5071923;28;20101;-67
2021/05/15 02:55:44;;;;;;;5.50;2.28;;;9.40;99.90;;;;;;5072637;28;20028;-67
2021/05/15 02:58:11;;;;;;;3.08;2.00;;;9.30;99.90;;;;;;5075894;28;20028;-67
2021/05/15 03:00:37;;;;;;;4.80;2.38;;;9.30;99.90;;;;;;5075878;28;20040;-67
2021/05/15 03:03:03;;;;;;;4.75;2.63;;;9.50;99.90;;;;;;5075741;28;20036;-67
2021/05/15 03:05:30;;;;;;;4.00;2.30;;;9.60;99.90;;;;;;5075595;28;20025;-67
2021/05/15 03:07:56;;;;;;;3.65;2.20;;;9.70;99.90;;;;;;5075830;28;20049;-67
2021/05/15 03:10:25;;;;;;;5.50;2.17;;;9.80;99.90;;;;;;5075568;28;20482;-67
2021/05/15 03:12:56;;;;;;;2.70;1.67;;;9.80;99.90;;;;;;5075337;28;20463;-67
2021/05/15 03:15:24;;;;;;;3.08;1.90;;;10.00;99.90;;;;;;5075306;28;20098;-67
2021/05/15 03:17:51;;;;;;;4.70;2.17;;;10.00;99.90;;;;;;5074108;28;20100;-67
2021/05/15 03:20:21;;;;;;;5.88;1.92;;;10.10;99.90;;;;;;5075403;28;20060;-67
2021/05/15 03:22:49;;;;;;;3.40;1.75;;;10.20;99.90;;;;;;5057822;28;20082;-67
2021/05/15 03:25:18;;;;;;;5.22;1.33;;;10.30;99.90;;;;;;5075286;28;20128;-67
2021/05/15 03:27:43;;;;;;;3.15;1.45;;;10.30;99.90;;;;;;5073744;28;20562;-67
2021/05/15 03:30:11;;;;;;;2.45;1.42;;;10.40;99.90;;;;;;5075346;28;20064;-67
2021/05/15 03:32:40;;;;;;;4.03;1.45;;;10.40;99.90;;;;;;5073785;28;20025;-67
2021/05/15 03:35:06;;;;;;;2.95;1.52;;;10.40;99.90;;;;;;5074917;28;20051;-67
2021/05/15 03:37:32;;;;;;;3.22;1.20;;;10.50;99.90;;;;;;5075110;28;20032;-67
2021/05/15 03:39:57;;;;;;;4.55;1.50;;;10.50;99.90;;;;;;5075168;28;20116;-66
2021/05/15 03:42:24;;;;;;;5.70;1.42;;;10.50;99.90;;;;;;5073492;28;20070;-67
2021/05/15 03:44:50;;;;;;;3.40;1.60;;;10.40;99.90;;;;;;5075004;28;20036;-66
2021/05/15 03:47:16;;;;;;;3.00;1.23;;;10.40;99.90;;;;;;5074633;28;20032;-67
2021/05/15 03:49:41;;;;;;;2.70;1.17;;;10.40;99.90;;;;;;5075001;28;20542;-67
2021/05/15 03:52:07;;;;;;;3.88;1.30;;;10.40;99.90;;;;;;5074837;28;20427;-66
2021/05/15 03:54:33;;;;;;;6.05;1.30;;;10.40;99.90;;;;;;5074767;28;20036;-67
2021/05/15 03:56:59;;;;;;;2.88;1.30;;;10.40;99.90;;;;;;5074958;28;20029;-67
2021/05/15 03:59:24;;;;;;;3.90;1.70;;;10.30;99.90;;;;;;5074742;28;20359;-67
2021/05/15 04:01:50;;;;;;;2.75;1.70;;;10.10;99.90;;;;;;5074833;28;20064;-67
2021/05/15 04:04:16;;;;;;;3.33;2.13;;;10.00;99.90;;;;;;5074408;28;20071;-67
2021/05/15 04:06:42;;;;;;;5.28;2.40;;;9.90;99.90;;;;;;5074213;28;20546;-68
2021/05/15 04:09:07;;;;;;;3.70;1.95;;;9.90;99.90;;;;;;5074514;28;20028;-69
2021/05/15 04:11:39;;;;;;;4.28;2.38;;;10.00;99.90;;;;;;5074161;28;20521;-69
2021/05/15 04:14:32;;;;;;;4.03;1.77;;;10.10;99.90;;;;;;5074392;28;20064;-69
2021/05/15 04:19:30;;;;;;;4.35;1.75;;;10.20;99.90;;;;;;5073859;28;20040;-68
2021/05/15 04:21:57;;;;;;;2.88;1.45;;;10.30;99.90;;;;;;5074327;28;20040;-68
2021/05/15 04:24:27;;;;;;;4.88;1.00;;;10.30;99.90;;;;;;5072963;28;20040;-68
2021/05/15 04:26:55;;;;;;;2.80;1.55;;;10.40;99.90;;;;;;5074083;28;20028;-69
2021/05/15 04:29:22;;;;;;;2.97;1.50;;;10.50;99.90;;;;;;5073578;28;20033;-68
2021/05/15 04:31:49;;;;;;;2.90;1.27;;;10.60;99.90;;;;;;5073716;28;20429;-68
2021/05/15 04:34:15;;;;;;;2.47;1.23;;;10.60;99.90;;;;;;5087553;28;20043;-68
2021/05/15 04:36:42;;;;;;;2.88;1.23;;;10.60;99.90;;;;;;5093851;28;20558;-69
2021/05/15 04:39:08;;;;;;;2.20;1.30;;;10.70;99.90;;;;;;5092879;28;20024;-68
2021/05/15 04:41:34;;;;;;;2.50;1.13;;;10.70;99.90;;;;;;5094145;28;20472;-70
2021/05/15 04:44:00;;;;;;;4.10;1.10;;;10.70;99.90;;;;;;5093694;28;20490;-69
2021/05/15 04:46:26;;;;;;;2.05;1.17;;;10.80;99.90;;;;;;5093601;28;20058;-68
2021/05/15 04:48:52;;;;;;;1.77;1.45;;;10.80;99.90;;;;;;5093695;28;20442;-68
2021/05/15 04:51:18;;;;;;;2.00;1.20;;;10.90;99.90;;;;;;5092516;28;20028;-69
2021/05/15 04:53:44;;;;;;;2.13;1.20;;;10.90;99.90;;;;;;5090749;28;20461;-69
2021/05/15 04:56:10;;;;;;;4.28;1.10;;;11.00;99.90;;;;;;5073409;28;20035;-69
2021/05/15 04:58:36;;;;;;;2.15;1.00;;;11.00;99.90;;;;;;5073186;28;20036;-69
2021/05/15 05:01:03;;;;;;;2.63;0.90;;;11.00;99.90;;;;;;5073241;28;20039;-68
2021/05/15 05:03:29;;;;;;;1.98;1.00;;;11.00;99.90;;;;;;5072126;28;20029;-68
2021/05/15 05:05:56;;;;;;;2.03;1.27;;;11.10;99.90;;;;;;5073190;28;20213;-69
2021/05/15 05:08:24;;;;;;;4.45;1.30;;;11.00;99.90;;;;;;5073211;28;20036;-69
2021/05/15 05:10:53;;;;;;;2.33;1.38;;;11.00;99.90;;;;;;5071998;28;20039;-68
2021/05/15 05:13:19;;;;;;;2.03;1.15;;;11.00;99.90;;;;;;5055722;28;20425;-67
2021/05/15 05:15:46;;;;;;;3.58;1.30;;;11.00;99.90;;;;;;5073107;28;20064;-66
2021/05/15 05:18:12;;;;;;;2.13;1.10;;;11.10;99.90;;;;;;5072398;28;20508;-67
2021/05/15 05:20:38;;;;;;;2.13;1.17;;;11.10;99.90;;;;;;5071287;28;20048;-68
2021/05/15 05:23:04;;;;;;;1.75;1.23;;;11.10;99.90;;;;;;5072931;28;20029;-68
2021/05/15 05:25:30;;;;;;;2.40;1.00;;;11.20;99.90;;;;;;5090823;28;20374;-68
2021/05/15 05:27:56;;;;;;;3.33;1.33;;;11.30;99.90;;;;;;5093052;28;20032;-68
2021/05/15 05:30:22;;;;;;;2.10;1.35;;;11.30;99.90;;;;;;5092867;28;20032;-68
2021/05/15 05:32:52;;;;;;;2.28;1.30;;;11.40;99.90;;;;;;5092006;28;20036;-69
2021/05/15 05:35:19;;;;;;;3.05;1.10;;;11.50;99.90;;;;;;5092821;28;20062;-69
2021/05/15 05:37:47;;;;;;;2.45;1.20;;;11.50;99.90;;;;;;5091813;28;20024;-70
2021/05/15 05:40:15;;;;;;;3.85;1.30;;;11.60;99.90;;;;;;5092651;28;20464;-70
2021/05/15 05:42:42;;;;;;;1.92;1.10;;;11.80;99.90;;;;;;5092486;28;20063;-68
2021/05/15 05:45:11;;;;;;;2.80;1.30;;;11.80;99.90;;;;;;5092840;28;20380;-69
2021/05/15 05:47:38;;;;;;;2.40;1.27;;;11.70;99.90;;;;;;5092857;28;20126;-70
2021/05/15 05:50:06;;;;;;;1.90;1.08;;;11.80;99.90;;;;;;5092792;28;20020;-70
2021/05/15 05:52:32;;;;;;;2.40;1.30;;;11.90;99.90;;;;;;5092820;28;20028;-67
2021/05/15 05:54:57;;;;;;;1.55;1.10;;;12.00;99.90;;;;;;5079266;28;20056;-70
2021/05/15 05:57:23;;;;;;;2.95;1.20;;;12.10;99.90;;;;;;5071195;28;20500;-68
2021/05/15 05:59:49;;;;;;;3.40;2.03;;;12.20;99.90;;;;;;5072456;28;20036;-65
2021/05/15 06:02:15;;;;;;;2.20;1.30;;;12.20;99.90;;;;;;5072476;28;20066;-68
2021/05/15 06:04:40;;;;;;;2.88;1.73;;;12.30;99.90;;;;;;5072117;28;20033;-71
2021/05/15 06:07:07;;;;;;;2.58;1.30;;;12.40;99.90;;;;;;5072459;28;20071;-69
2021/05/15 06:09:35;;;;;;;3.08;1.73;;;12.40;99.90;;;;;;5072188;28;20117;-68
2021/05/15 06:12:01;;;;;;;2.83;1.33;;;12.40;99.90;;;;;;5071003;28;20029;-68
2021/05/15 06:14:27;;;;;;;2.75;1.33;;;12.30;99.90;;;;;;5072090;28;20068;-67
2021/05/15 06:16:53;;;;;;;2.08;1.30;;;12.00;99.90;;;;;;5072045;28;20025;-67
2021/05/15 06:19:19;;;;;;;3.20;1.67;;;11.90;99.90;;;;;;5070575;28;20074;-66
2021/05/15 06:21:45;;;;;;;4.88;1.63;;;12.00;99.90;;;;;;5071871;28;20051;-66
2021/05/15 06:24:14;;;;;;;5.45;1.45;;;11.70;99.90;;;;;;5079133;28;20036;-61
2021/05/15 06:26:39;;;;;;;3.00;1.65;;;11.80;99.90;;;;;;5091078;28;20030;-68
2021/05/15 06:29:05;;;;;;;2.58;1.40;;;11.70;99.90;;;;;;5092024;28;20391;-68
2021/05/15 06:31:31;;;;;;;3.45;1.45;;;11.80;99.90;;;;;;5090354;28;20520;-68
2021/05/15 06:33:57;;;;;;;2.30;1.40;;;11.80;99.90;;;;;;5094582;28;20476;-68
2021/05/15 06:36:23;;;;;;;4.15;1.42;;;11.80;99.90;;;;;;5096308;28;20036;-68
2021/05/15 06:38:49;;;;;;;2.63;1.42;;;11.80;99.90;;;;;;5095040;28;20024;-68
2021/05/15 06:41:15;;;;;;;2.42;1.20;;;11.70;99.90;;;;;;5096360;28;20035;-68
2021/05/15 06:43:40;;;;;;;2.42;1.40;;;11.80;99.90;;;;;;5096313;28;20031;-68
2021/05/15 06:46:06;;;;;;;3.47;1.65;;;11.90;99.90;;;;;;5096402;28;20027;-69
2021/05/15 06:48:32;;;;;;;2.90;1.70;;;11.90;99.90;;;;;;5096283;28;20498;-68
2021/05/15 06:50:57;;;;;;;3.13;1.38;;;11.80;99.90;;;;;;5096026;28;20056;-69
2021/05/15 06:53:23;;;;;;;4.20;1.38;;;11.90;99.90;;;;;;5094641;28;20123;-68
2021/05/15 06:55:49;;;;;;;5.97;1.75;;;12.10;99.90;;;;;;5075500;28;20065;-69
2021/05/15 06:58:15;;;;;;;2.75;1.77;;;12.10;99.90;;;;;;5075952;28;20032;-68
2021/05/15 07:00:41;;;;;;;4.47;1.80;;;12.10;99.90;;;;;;5075767;28;20105;-68
2021/05/15 07:03:07;;;;;;;4.85;1.85;;;12.10;99.90;;;;;;5076000;28;20035;-68
2021/05/15 07:05:34;;;;;;;2.85;1.70;;;12.20;99.90;;;;;;5074255;28;20035;-68
2021/05/15 07:08:01;;;;;;;3.97;1.80;;;12.10;99.90;;;;;;5075749;28;20116;-68
2021/05/15 07:10:28;;;;;;;3.67;1.98;;;12.00;99.90;;;;;;5075514;28;20544;-68
2021/05/15 07:12:54;;;;;;;3.70;1.67;;;11.90;99.90;;;;;;5075277;28;20029;-68
2021/05/15 07:15:21;;;;;;;2.55;1.58;;;12.10;99.90;;;;;;5075630;28;20114;-67
2021/05/15 07:17:47;;;;;;;3.75;1.20;;;12.10;99.90;;;;;;5073868;28;20119;-69
2021/05/15 07:20:14;;;;;;;2.42;1.50;;;12.10;99.90;;;;;;5074109;28;20120;-69
2021/05/15 07:22:42;;;;;;;2.92;1.67;;;12.00;99.90;;;;;;5075325;28;20038;-69
2021/05/15 07:25:09;;;;;;;3.63;2.22;;;12.00;99.90;;;;;;5090073;28;20052;-69
2021/05/15 07:27:35;;;;;;;5.57;2.22;;;11.90;99.90;;;;;;5095341;28;20178;-69
2021/05/15 07:30:05;;;;;;;5.70;3.65;;;12.00;99.90;;;;;;5095576;28;20050;-69
2021/05/15 07:32:31;;;;;;;3.40;2.13;;;11.80;99.90;;;;;;5095341;28;20032;-67
2021/05/15 07:34:57;;;;;;;3.70;1.90;;;11.90;99.90;;;;;;5095215;28;20493;-68
2021/05/15 07:37:23;;;;;;;2.25;1.38;;;12.00;99.90;;;;;;5095466;28;20039;-68
2021/05/15 07:39:49;;;;;;;3.05;1.75;;;12.10;99.90;;;;;;5095117;28;20032;-68
2021/05/15 07:42:14;;;;;;;2.65;1.42;;;12.20;99.90;;;;;;5094752;28;20039;-68
2021/05/15 07:44:40;;;;;;;4.38;2.00;;;12.20;99.90;;;;;;5094872;28;20354;-67
2021/05/15 07:47:06;;;;;;;3.63;1.88;;;12.40;99.90;;;;;;5094979;28;20357;-67
2021/05/15 07:49:32;;;;;;;3.45;1.63;;;12.50;99.90;;;;;;5094718;28;20111;-69
2021/05/15 07:51:58;;;;;;;4.13;1.70;;;12.50;99.90;;;;;;5095198;28;20020;-69
2021/05/15 07:54:24;;;;;;;3.50;1.85;;;12.30;99.90;;;;;;5085796;28;20036;-69
2021/05/15 07:56:51;;;;;;;3.58;2.25;;;12.10;99.90;;;;;;5074431;28;20056;-70
2021/05/15 07:59:17;;;;;;;3.08;1.52;;;12.00;99.90;;;;;;5074521;28;20035;-70
2021/05/15 08:01:44;;;;;;;4.13;2.17;;;12.00;99.90;;;;;;5074611;28;20110;-70
2021/05/15 08:04:10;;;;;;;4.57;1.77;;;12.10;99.90;;;;;;5074801;28;20032;-70
2021/05/15 08:06:36;;;;;;;4.63;1.90;;;12.20;99.90;;;;;;5074239;28;20087;-70
2021/05/15 08:09:04;;;;;;;3.00;1.80;;;12.30;99.90;;;;;;5074329;28;20033;-69
2021/05/15 08:11:32;;;;;;;2.47;1.63;;;12.40;99.90;;;;;;5074256;28;20032;-69
2021/05/15 08:13:59;;;;;;;5.18;2.17;;;12.40;99.90;;;;;;5074077;28;20035;-68
2021/05/15 08:16:25;;;;;;;4.45;2.05;;;12.60;99.90;;;;;;5073693;28;20031;-71
2021/05/15 08:18:51;;;;;;;3.67;1.85;;;12.60;99.90;;;;;;5073299;28;20095;-71
2021/05/15 08:21:16;;;;;;;4.35;1.50;;;12.80;99.90;;;;;;5072640;28;20036;-69
2021/05/15 08:23:42;;;;;;;5.30;2.08;;;12.90;99.90;;;;;;5077004;28;20025;-71
2021/05/15 08:26:11;;;;;;;5.53;1.65;;;12.80;99.90;;;;;;5094025;28;20476;-70
2021/05/15 08:28:42;;;;;;;6.45;1.50;;;12.90;99.90;;;;;;5093992;28;20033;-66
2021/05/15 08:31:08;;;;;;;2.50;1.02;;;12.80;99.90;;;;;;5094094;28;20051;-66
2021/05/15 08:33:35;;;;;;;5.03;1.80;;;12.80;99.90;;;;;;5094141;28;20400;-72
2021/05/15 08:36:01;;;;;;;2.95;1.52;;;12.80;99.90;;;;;;5094199;28;20078;-67
2021/05/15 08:38:27;;;;;;;1.83;1.00;;;13.00;99.90;;;;;;5090658;28;20476;-67
2021/05/15 08:40:53;;;;;;;3.10;1.52;;;13.00;99.90;;;;;;5093891;28;20059;-65
2021/05/15 08:43:20;;;;;;;2.90;0.88;;;13.10;99.90;;;;;;5094148;28;20167;-67
2021/05/15 08:45:48;;;;;;;5.18;1.30;;;13.20;99.90;;;;;;5093885;28;20043;-68
2021/05/15 08:48:15;;;;;;;4.00;1.80;;;13.20;99.90;;;;;;5093622;28;20093;-71
2021/05/15 08:50:41;;;;;;;3.17;1.55;;;13.20;99.90;;;;;;5093954;28;20038;-71
2021/05/15 08:53:07;;;;;;;2.47;1.42;;;13.30;99.90;;;;;;5093021;28;20077;-71
2021/05/15 08:55:34;;;;;;;3.10;1.95;;;13.30;99.90;;;;;;5073748;28;20028;-71
2021/05/15 08:58:03;;;;;;;3.17;1.50;;;13.30;99.90;;;;;;5073747;28;20040;-71
2021/05/15 09:00:35;;;;;;;5.40;1.92;;;13.20;99.90;;;;;;5072051;28;20461;-70
2021/05/15 09:03:09;;;;;;;4.00;1.45;;;13.40;99.90;;;;;;5073552;28;20043;-71
2021/05/15 09:05:39;;;;;;;3.17;1.45;;;13.50;99.90;;;;;;5071182;28;20024;-71
2021/05/15 09:08:09;;;;;;;4.43;1.27;;;13.40;99.90;;;;;;5070790;28;20105;-71
2021/05/15 09:10:39;;;;;;;2.40;1.20;;;13.60;99.90;;;;;;5044108;28;20044;-68
2021/05/15 09:13:06;;;;;;;70.07;32.42;;;13.90;99.90;;;;;;5071997;28;20035;-66
2021/05/15 09:15:46;;;;;;;3.03;1.40;;;13.90;99.90;;;;;;5071821;28;20546;-66
2021/05/15 09:18:19;;;;;;;4.45;1.40;;;13.70;99.90;;;;;;5072788;28;20055;-66
2021/05/15 09:20:46;;;;;;;2.72;1.17;;;13.80;99.90;;;;;;5073108;28;20040;-71
2021/05/15 09:23:26;;;;;;;2.53;1.15;;;13.80;99.90;;;;;;5071974;28;20031;-70
2021/05/15 09:26:08;;;;;;;3.30;0.98;;;13.70;99.90;;;;;;5052871;28;20039;-71
2021/05/15 09:28:46;;;;;;;4.40;1.00;;;13.50;99.90;;;;;;5051689;28;20472;-72
2021/05/15 09:31:28;;;;;;;6.28;1.70;;;13.40;99.90;;;;;;5053081;28;20107;-71
2021/05/15 09:34:02;;;;;;;2.63;1.10;;;13.40;99.90;;;;;;5052610;28;20030;-70
2021/05/15 09:36:29;;;;;;;4.05;1.30;;;13.40;99.90;;;;;;5052644;28;20489;-70
2021/05/15 09:39:13;;;;;;;1.98;1.00;;;13.50;99.90;;;;;;5052725;28;20025;-70
2021/05/15 09:41:45;;;;;;;1.52;0.90;;;13.70;99.90;;;;;;5052764;28;20072;-71
2021/05/15 09:44:20;;;;;;;2.30;1.20;;;14.00;99.90;;;;;;5052680;28;20528;-70
2021/05/15 09:46:48;;;;;;;5.70;1.20;;;14.40;99.90;;;;;;5052619;28;20045;-71
2021/05/15 09:49:29;;;;;;;1.77;1.05;;;14.50;99.90;;;;;;5052231;28;20017;-69
2021/05/15 09:52:05;;;;;;;2.13;1.30;;;14.70;99.90;;;;;;5051413;28;20029;-68
2021/05/15 09:54:43;;;;;;;2.92;1.23;;;14.60;99.90;;;;;;5071673;28;20529;-69
2021/05/15 09:57:13;;;;;;;5.55;1.65;;;14.90;99.90;;;;;;5091604;28;20039;-70
2021/05/15 09:59:42;;;;;;;2.78;1.13;;;15.20;99.90;;;;;;5092864;28;20367;-68
2021/05/15 10:02:11;;;;;;;1.67;1.20;;;15.10;99.90;;;;;;5092802;28;20032;-69
2021/05/15 10:04:38;;;;;;;2.20;1.10;;;15.30;99.90;;;;;;5092499;28;20028;-72
2021/05/15 10:07:24;;;;;;;2.58;1.00;;;15.20;99.90;;;;;;5091145;28;20097;-70
2021/05/15 10:09:51;;;;;;;2.92;1.27;;;14.90;99.90;;;;;;5092625;28;20024;-71
2021/05/15 10:12:17;;;;;;;4.32;1.83;;;14.80;99.90;;;;;;5091506;28;20020;-72
2021/05/15 10:14:43;;;;;;;4.43;1.63;;;14.70;99.90;;;;;;5084577;28;20032;-70
2021/05/15 10:17:08;;;;;;;2.08;0.95;;;14.60;99.90;;;;;;5092339;28;20027;-69
2021/05/15 10:19:34;;;;;;;2.22;1.10;;;14.50;99.90;;;;;;5092207;28;20036;-73
2021/05/15 10:22:00;;;;;;;2.97;1.05;;;14.60;99.90;;;;;;5092506;28;20121;-72
2021/05/15 10:24:33;;;;;;;2.20;0.98;;;14.60;99.90;;;;;;5082964;28;20029;-68
2021/05/15 10:27:12;;;;;;;4.70;1.23;;;14.60;99.90;;;;;;5070930;28;20362;-71
2021/05/15 10:30:10;;;;;;;2.00;0.90;;;14.60;99.90;;;;;;5070771;28;20033;-71
2021/05/15 10:32:56;;;;;;;5.25;1.27;;;14.50;99.90;;;;;;5075070;28;20032;-72
2021/05/15 10:35:35;;;;;;;5.55;1.08;;;14.10;99.90;;;;;;5071982;28;20033;-69
2021/05/15 10:38:13;;;;;;;2.08;0.80;;;13.80;99.90;;;;;;5070602;28;20333;-70
2021/05/15 10:41:14;;;;;;;2.72;0.68;;;13.30;99.90;;;;;;5071878;28;20465;-70
2021/05/15 10:43:42;;;;;;;2.10;0.68;;;12.80;99.90;;;;;;5072025;28;20466;-71
2021/05/15 10:46:31;;;;;;;1.67;0.63;;;12.70;99.90;;;;;;5071733;28;20028;-70
2021/05/15 10:49:25;;;;;;;5.65;0.65;;;12.70;99.90;;;;;;5071804;28;20032;-71
2021/05/15 10:51:55;;;;;;;5.00;0.77;;;12.70;99.90;;;;;;5070231;28;20055;-71
2021/05/15 10:54:35;;;;;;;4.35;0.98;;;12.70;99.90;;;;;;5080340;28;20032;-69
2021/05/15 10:57:08;;;;;;;1.45;0.80;;;12.80;99.90;;;;;;5092116;28;20035;-70
2021/05/15 10:59:37;;;;;;;1.73;0.80;;;13.00;99.90;;;;;;5091921;28;20063;-69
2021/05/15 11:02:13;;;;;;;2.50;0.68;;;13.30;99.90;;;;;;5092025;28;20028;-70
2021/05/15 11:04:54;;;;;;;2.15;0.60;;;13.60;99.90;;;;;;5090622;28;20432;-70
2021/05/15 11:07:22;;;;;;;4.40;0.70;;;13.90;99.90;;;;;;5092132;28;20028;-69
2021/05/15 11:09:56;;;;;;;2.45;0.70;;;14.10;99.90;;;;;;5076801;28;20063;-69
2021/05/15 11:12:23;;;;;;;1.52;0.70;;;14.20;99.90;;;;;;5071848;28;20115;-69
2021/05/15 11:14:50;;;;;;;4.45;1.40;;;14.40;99.90;;;;;;5071690;28;20025;-69
2021/05/15 11:17:19;;;;;;;3.55;0.88;;;14.70;99.90;;;;;;5072919;28;20029;-73
2021/05/15 11:20:10;;;;;;;2.00;1.00;;;14.80;99.90;;;;;;5074810;28;20105;-69
2021/05/15 11:22:52;;;;;;;3.40;1.10;;;14.80;99.90;;;;;;5075298;28;20618;-69
2021/05/15 11:25:26;;;;;;;3.97;1.10;;;14.80;99.90;;;;;;5091790;28;20024;-69
2021/05/15 11:28:07;;;;;;;3.03;1.00;;;15.10;99.90;;;;;;5095529;28;20020;-67
2021/05/15 11:30:46;;;;;;;2.28;1.15;;;15.00;99.90;;;;;;5095835;28;20028;-70
2021/05/15 11:33:14;;;;;;;3.00;1.10;;;15.00;99.90;;;;;;5094328;28;20032;-67
2021/05/15 11:35:53;;;;;;;4.32;1.20;;;15.10;99.90;;;;;;5095603;28;20028;-67
2021/05/15 11:38:37;;;;;;;3.20;1.30;;;15.30;99.90;;;;;;5095719;28;20076;-69
2021/05/15 11:41:10;;;;;;;2.45;1.20;;;15.30;99.90;;;;;;5094799;28;20041;-68
2021/05/15 11:44:10;;;;;;;;;;;;;;;;;;;;;
2021/05/15 11:46:45;;;;;;;4.30;0.95;;;15.20;99.90;;;;;;5094959;28;20056;-72
2021/05/15 11:49:30;;;;;;;3.15;0.90;;;15.60;99.90;;;;;;5094079;28;20032;-70
2021/05/15 11:52:11;;;;;;;4.07;0.63;;;16.00;99.90;;;;;;5093892;28;20449;-71
2021/05/15 11:54:47;;;;;;;4.25;0.80;;;15.90;99.90;;;;;;5093904;28;20044;-69
2021/05/15 11:57:26;;;;;;;3.10;0.90;;;16.00;99.90;;;;;;5093870;28;20491;-71
2021/05/15 12:00:17;;;;;;;4.78;1.00;;;15.80;99.90;;;;;;5095027;28;20553;-70
2021/05/15 12:02:47;;;;;;;3.58;0.88;;;15.60;99.90;;;;;;5095402;28;20051;-68
2021/05/15 12:05:17;;;;;;;1.15;0.50;;;14.90;99.90;;;;;;5093636;28;20078;-70
2021/05/15 12:07:53;;;;;;;1.30;0.20;;;13.10;99.90;;;;;;5093806;28;20116;-70
2021/05/15 12:10:30;;;;;;;2.53;0.70;;;11.70;99.90;;;;;;5093745;28;20036;-69
2021/05/15 12:13:02;;;;;;;0.30;0.30;;;10.90;99.90;;;;;;5074346;28;20036;-65
2021/05/15 12:15:30;;;;;;;1.60;0.47;;;10.80;99.90;;;;;;5074385;28;20036;-68
2021/05/15 12:18:01;;;;;;;1.08;0.52;;;10.80;99.90;;;;;;5073975;28;20393;-67
2021/05/15 12:20:42;;;;;;;1.85;0.68;;;11.00;99.90;;;;;;5074098;28;20433;-70
2021/05/15 12:23:29;;;;;;;1.75;0.50;;;11.30;99.90;;;;;;5074047;28;20033;-66
2021/05/15 12:26:07;;;;;;;0.88;0.50;;;11.90;99.90;;;;;;5053513;28;20044;-68
2021/05/15 12:28:48;;;;;;;3.28;0.52;;;12.50;99.90;;;;;;5054105;28;20029;-68
2021/05/15 12:31:43;;;;;;;1.85;0.50;;;12.90;99.90;;;;;;5054140;28;20531;-69
2021/05/15 12:34:10;;;;;;;1.60;0.40;;;13.20;99.90;;;;;;5066637;28;20048;-69
2021/05/15 12:36:38;;;;;;;0.93;0.40;;;13.60;99.90;;;;;;5074100;28;20117;-69
2021/05/15 12:39:11;;;;;;;1.98;0.60;;;13.80;99.90;;;;;;5073640;28;20035;-70
2021/05/15 12:41:40;;;;;;;2.00;0.60;;;13.80;99.90;;;;;;5073981;28;20031;-69
2021/05/15 12:44:11;;;;;;;2.80;1.00;;;13.90;99.90;;;;;;5073484;28;20037;-69
2021/05/15 12:46:46;;;;;;;1.25;0.52;;;14.10;99.90;;;;;;5073856;28;20032;-71
2021/05/15 12:49:15;;;;;;;3.35;0.50;;;14.20;99.90;;;;;;5072039;28;20032;-72
2021/05/15 12:51:52;;;;;;;3.97;0.70;;;14.20;99.90;;;;;;5074055;28;20033;-67
2021/05/15 12:54:20;;;;;;;1.67;0.50;;;14.10;99.90;;;;;;5081754;28;20040;-71
2021/05/15 12:56:57;;;;;;;1.38;0.50;;;14.00;99.90;;;;;;5092301;28;20040;-73
2021/05/15 12:59:39;;;;;;;7.22;1.10;;;14.00;99.90;;;;;;5092603;28;20498;-72
2021/05/15 13:02:16;;;;;;;1.13;0.52;;;13.90;99.90;;;;;;5093824;28;20067;-71
2021/05/15 13:04:51;;;;;;;2.05;1.00;;;14.00;99.90;;;;;;5093662;28;20590;-75